createdAt,value
2023-04-25T00:00:54.138Z,87.42
2023-04-25T00:03:22.260Z,87.26
2023-04-25T00:05:49.722Z,87.30
2023-04-25T00:08:16.660Z,87.66
2023-04-25T00:10:43.301Z,87.73
2023-04-25T00:13:12.420Z,87.47
2023-04-25T00:15:39.707Z,87.79
2023-04-25T00:18:07.352Z,88.09
2023-04-25T00:20:34.129Z,87.55
2023-04-25T00:23:00.761Z,88.01
2023-04-25T00:25:27.658Z,88.08
2023-04-25T00:27:54.282Z,88.08
2023-04-25T00:30:20.922Z,87.93
2023-04-25T00:32:47.590Z,87.98
2023-04-25T00:35:14.501Z,87.63
2023-04-25T00:37:41.396Z,87.38
2023-04-25T00:40:08.740Z,87.51
2023-04-25T00:42:36.938Z,87.42
2023-04-25T00:45:06.604Z,87.27
2023-04-25T00:47:34.144Z,87.39
2023-04-25T00:50:00.852Z,87.86
2023-04-25T00:52:27.719Z,87.61
2023-04-25T00:54:54.440Z,87.53
2023-04-25T00:57:21.168Z,87.50
2023-04-25T00:59:48.452Z,87.52
2023-04-25T01:02:15.304Z,87.67
2023-04-25T01:04:42.100Z,87.11
2023-04-25T01:07:09.820Z,87.39
2023-04-25T01:09:36.550Z,86.97
2023-04-25T01:12:03.761Z,86.66
2023-04-25T01:14:30.862Z,86.91
2023-04-25T01:16:58.115Z,86.25
2023-04-25T01:19:25.565Z,86.98
2023-04-25T01:21:52.580Z,86.86
2023-04-25T01:24:19.590Z,86.53
2023-04-25T01:26:50.544Z,86.61
2023-04-25T01:29:18.718Z,86.73
2023-04-25T01:31:45.732Z,86.86
2023-04-25T01:34:13.272Z,86.49
2023-04-25T01:36:40.354Z,85.69
2023-04-25T01:39:07.429Z,85.61
2023-04-25T01:41:35.480Z,86.03
2023-04-25T01:44:03.151Z,85.57
2023-04-25T01:46:31.662Z,85.34
2023-04-25T01:48:58.416Z,85.99
2023-04-25T01:51:25.208Z,85.79
2023-04-25T01:53:52.145Z,85.16
2023-04-25T01:56:19.415Z,85.61
2023-04-25T01:58:46.469Z,85.46
2023-04-25T02:01:13.480Z,85.43
2023-04-25T02:03:40.519Z,85.37
2023-04-25T02:06:07.368Z,85.67
2023-04-25T02:08:34.495Z,85.28
2023-04-25T02:11:01.204Z,85.33
2023-04-25T02:13:27.864Z,85.42
2023-04-25T02:15:54.616Z,85.64
2023-04-25T02:22:34.986Z,86.04
2023-04-25T02:25:02.048Z,85.35
2023-04-25T02:27:28.769Z,85.77
2023-04-25T02:29:55.485Z,85.69
2023-04-25T02:32:22.251Z,85.48
2023-04-25T02:34:49.069Z,85.68
2023-04-25T02:37:15.957Z,85.53
2023-04-25T02:39:42.696Z,85.35
2023-04-25T02:42:09.371Z,85.21
2023-04-25T02:44:36.090Z,85.89
2023-04-25T02:47:03.002Z,85.26
2023-04-25T02:49:29.828Z,85.37
2023-04-25T02:51:56.524Z,85.07
2023-04-25T02:54:23.234Z,85.71
2023-04-25T02:56:49.931Z,85.08
2023-04-25T02:59:17.005Z,85.30
2023-04-25T03:01:43.760Z,85.12
2023-04-25T03:04:10.591Z,85.14
2023-04-25T03:06:37.360Z,84.88
2023-04-25T03:09:04.894Z,85.17
2023-04-25T03:11:31.599Z,84.96
2023-04-25T03:13:58.382Z,84.65
2023-04-25T03:16:25.163Z,84.06
2023-04-25T03:18:51.955Z,83.85
2023-04-25T03:21:18.870Z,84.04
2023-04-25T03:23:45.930Z,83.46
2023-04-25T03:26:12.595Z,84.25
2023-04-25T03:28:40.665Z,84.00
2023-04-25T03:31:07.581Z,84.04
2023-04-25T03:33:34.301Z,84.30
2023-04-25T03:36:01.014Z,84.67
2023-04-25T03:38:27.767Z,84.57
2023-04-25T03:40:55.001Z,84.80
2023-04-25T03:43:21.728Z,84.71
2023-04-25T03:45:48.750Z,85.04
2023-04-25T03:48:15.960Z,84.63
2023-04-25T03:50:42.647Z,85.03
2023-04-25T03:53:09.437Z,85.25
2023-04-25T03:55:36.199Z,85.06
2023-04-25T03:58:02.904Z,85.12
2023-04-25T04:00:29.626Z,85.28
2023-04-25T04:02:56.756Z,85.17
2023-04-25T04:05:24.378Z,85.50
2023-04-25T04:07:51.204Z,85.20
2023-04-25T04:10:18.006Z,85.57
2023-04-25T04:12:45.115Z,85.59
2023-04-25T04:15:11.985Z,85.61
2023-04-25T04:17:39.147Z,85.52
2023-04-25T04:20:07.010Z,86.01
2023-04-25T04:22:33.720Z,85.47
2023-04-25T04:25:00.448Z,85.67
2023-04-25T04:27:27.298Z,85.24
2023-04-25T04:29:54.284Z,85.19
2023-04-25T04:32:21.067Z,85.24
2023-04-25T04:34:48.341Z,84.85
2023-04-25T04:37:15.692Z,85.17
2023-04-25T04:39:42.580Z,84.71
2023-04-25T04:42:09.625Z,84.91
2023-04-25T04:44:36.429Z,84.52
2023-04-25T04:47:07.067Z,84.56
2023-04-25T04:49:34.443Z,84.50
2023-04-25T04:52:01.662Z,84.07
2023-04-25T04:54:28.392Z,84.25
2023-04-25T04:56:55.598Z,83.91
2023-04-25T04:59:22.336Z,84.04
2023-04-25T05:01:49.047Z,84.17
2023-04-25T05:04:15.920Z,84.17
2023-04-25T05:06:42.838Z,84.06
2023-04-25T05:09:09.541Z,84.45
2023-04-25T05:11:36.280Z,84.47
2023-04-25T05:14:02.987Z,84.42
2023-04-25T05:16:29.755Z,83.92
2023-04-25T05:18:56.526Z,83.73
2023-04-25T05:21:23.469Z,83.79
2023-04-25T05:23:50.605Z,83.46
2023-04-25T05:26:17.526Z,83.34
2023-04-25T05:28:44.231Z,82.74
2023-04-25T05:31:11.319Z,82.25
2023-04-25T05:33:38.089Z,81.58
2023-04-25T05:36:05.285Z,81.60
2023-04-25T05:38:34.640Z,82.17
2023-04-25T05:41:01.714Z,81.67
2023-04-25T05:43:28.419Z,82.06
2023-04-25T05:46:14.660Z,81.55
2023-04-25T05:48:41.378Z,81.60
2023-04-25T05:51:08.071Z,81.33
2023-04-25T05:53:34.769Z,81.17
2023-04-25T05:56:02.106Z,81.33
2023-04-25T05:58:29.720Z,81.02
2023-04-25T06:00:56.450Z,81.48
2023-04-25T06:03:23.805Z,80.92
2023-04-25T06:05:51.339Z,81.58
2023-04-25T06:08:18.062Z,81.12
2023-04-25T06:10:44.806Z,80.98
2023-04-25T06:13:11.632Z,81.17
2023-04-25T06:15:38.401Z,80.30
2023-04-25T06:18:05.191Z,80.03
2023-04-25T06:20:31.974Z,80.80
2023-04-25T06:22:58.750Z,79.30
2023-04-25T06:25:25.495Z,79.78
2023-04-25T06:27:52.197Z,79.87
2023-04-25T06:30:23.336Z,79.51
2023-04-25T06:32:50.227Z,79.66
2023-04-25T06:35:17.161Z,80.59
2023-04-25T06:37:43.852Z,79.62
2023-04-25T06:40:10.657Z,79.38
2023-04-25T06:42:37.454Z,78.37
2023-04-25T06:45:04.514Z,78.46
2023-04-25T06:47:31.340Z,78.39
2023-04-25T06:49:58.065Z,78.61
2023-04-25T06:52:24.754Z,78.31
2023-04-25T06:54:51.466Z,77.67
2023-04-25T06:57:18.159Z,77.75
2023-04-25T06:59:44.866Z,77.12
2023-04-25T07:02:11.673Z,75.49
2023-04-25T07:04:38.689Z,76.10
2023-04-25T07:07:05.640Z,76.70
2023-04-25T07:09:34.775Z,75.47
2023-04-25T07:12:02.518Z,74.95
2023-04-25T07:14:29.409Z,75.54
2023-04-25T07:16:57.859Z,75.57
2023-04-25T07:19:27.839Z,74.80
2023-04-25T07:21:54.668Z,74.75
2023-04-25T07:24:21.428Z,74.47
2023-04-25T07:26:48.249Z,74.72
2023-04-25T07:29:14.972Z,76.40
2023-04-25T07:31:41.761Z,76.46
2023-04-25T07:34:08.636Z,78.27
2023-04-25T07:36:35.470Z,78.77
2023-04-25T07:39:02.171Z,78.47
2023-04-25T07:41:28.918Z,78.59
2023-04-25T07:43:58.970Z,78.22
2023-04-25T07:46:25.936Z,78.31
2023-04-25T07:48:53.091Z,77.64
2023-04-25T07:51:20.915Z,77.57
2023-04-25T07:53:50.175Z,75.81
2023-04-25T07:56:17.335Z,76.34
2023-04-25T07:58:44.123Z,75.88
2023-04-25T08:01:10.927Z,76.12
2023-04-25T08:03:37.940Z,75.22
2023-04-25T08:06:07.688Z,75.37
2023-04-25T08:08:34.937Z,72.24
2023-04-25T08:11:01.632Z,69.51
2023-04-25T08:13:28.375Z,69.84
2023-04-25T08:15:55.692Z,70.57
2023-04-25T08:18:22.540Z,70.84
2023-04-25T08:20:49.315Z,69.48
2023-04-25T08:23:16.117Z,70.28
2023-04-25T08:25:42.872Z,70.36
2023-04-25T08:28:09.582Z,68.03
2023-04-25T08:30:37.315Z,67.34
2023-04-25T08:33:04.215Z,66.27
2023-04-25T08:35:31.023Z,67.59
2023-04-25T08:37:57.944Z,65.52
2023-04-25T08:40:30.998Z,66.31
2023-04-25T08:42:58.667Z,67.04
2023-04-25T08:45:28.777Z,66.78
2023-04-25T08:47:58.146Z,69.68
2023-04-25T08:50:25.923Z,71.22
2023-04-25T08:52:54.438Z,72.68
2023-04-25T08:55:22.263Z,74.96
2023-04-25T08:57:49.810Z,76.25
2023-04-25T09:00:16.861Z,76.79
2023-04-25T09:02:44.833Z,78.17
2023-04-25T09:05:14.414Z,77.67
2023-04-25T09:07:41.160Z,76.90
2023-04-25T09:10:08.326Z,78.91
2023-04-25T09:12:36.224Z,79.71
2023-04-25T09:15:11.416Z,79.69
2023-04-25T09:17:41.377Z,77.97
2023-04-25T09:20:08.633Z,77.33
2023-04-25T09:22:36.546Z,78.11
2023-04-25T09:25:05.608Z,78.18
2023-04-25T09:50:25.869Z,69.18
2023-04-25T09:53:08.026Z,70.96
2023-04-25T09:55:35.629Z,73.68
2023-04-25T09:58:07.133Z,75.30
2023-04-25T10:00:35.575Z,76.72
2023-04-25T10:03:05.835Z,77.27
2023-04-25T10:05:36.547Z,78.79
2023-04-25T10:08:05.216Z,78.68
2023-04-25T10:10:36.955Z,80.59
2023-04-25T10:13:06.086Z,78.90
2023-04-25T10:15:39.697Z,79.47
2023-04-25T10:18:29.625Z,79.06
2023-04-25T10:20:58.902Z,79.30
2023-04-25T10:23:26.717Z,79.68
2023-04-25T10:25:54.496Z,81.21
2023-04-25T10:28:21.696Z,78.68
2023-04-25T10:31:02.417Z,76.81
2023-04-25T10:33:36.024Z,75.96
2023-04-25T10:36:34.955Z,71.83
2023-04-25T10:39:07.916Z,69.73
2023-04-25T10:41:48.191Z,71.47
2023-04-25T10:44:16.261Z,69.54
2023-04-25T10:46:45.492Z,67.06
2023-04-25T10:49:30.340Z,63.85
2023-04-25T10:52:20.581Z,63.52
2023-04-25T10:54:48.732Z,64.81
2023-04-25T10:57:41.163Z,61.73
2023-04-25T11:00:16.221Z,59.56
2023-04-25T11:02:54.224Z,60.30
2023-04-25T11:05:36.404Z,61.08
2023-04-25T11:08:13.802Z,65.19
2023-04-25T11:10:42.174Z,66.14
2023-04-25T11:13:08.896Z,68.27
2023-04-25T11:15:35.729Z,68.81
2023-04-25T11:18:03.189Z,70.24
2023-04-25T11:20:30.022Z,71.23
2023-04-25T11:22:59.473Z,71.42
2023-04-25T11:25:26.919Z,70.96
2023-04-25T11:27:58.239Z,70.07
2023-04-25T11:30:26.441Z,71.06
2023-04-25T11:32:53.802Z,70.61
2023-04-25T11:35:21.804Z,70.03
2023-04-25T11:37:48.742Z,70.73
2023-04-25T11:40:15.745Z,70.58
2023-04-25T11:42:47.495Z,69.87
2023-04-25T11:45:15.286Z,66.70
2023-04-25T11:47:42.097Z,67.15
2023-04-25T11:50:09.531Z,63.79
2023-04-25T11:52:44.236Z,63.10
2023-04-25T11:55:15.771Z,62.11
2023-04-25T11:57:44.648Z,56.90
2023-04-25T12:00:16.750Z,53.56
2023-04-25T12:02:46.861Z,54.88
2023-04-25T12:07:48.935Z,56.86
2023-04-25T12:10:17.703Z,57.50
2023-04-25T12:12:46.602Z,58.24
2023-04-25T12:49:34.812Z,53.07
2023-04-25T12:52:01.598Z,56.20
2023-04-25T12:54:28.351Z,59.28
2023-04-25T12:56:55.814Z,59.94
2023-04-25T12:59:22.559Z,60.87
2023-04-25T13:01:49.420Z,61.62
2023-04-25T13:04:16.971Z,61.95
2023-04-25T13:06:44.022Z,61.43
2023-04-25T13:09:11.348Z,61.09
2023-04-25T13:11:38.241Z,60.51
2023-04-25T13:14:05.773Z,60.72
2023-04-25T13:16:32.872Z,60.12
2023-04-25T13:18:59.984Z,58.82
2023-04-25T13:21:27.880Z,59.98
2023-04-25T13:23:54.990Z,59.71
2023-04-25T13:26:21.986Z,58.96
2023-04-25T13:28:48.689Z,59.45
2023-04-25T14:56:09.894Z,59.80
2023-04-25T14:58:36.647Z,59.04
2023-04-25T15:01:03.522Z,59.40
2023-04-25T15:03:30.474Z,59.10
2023-04-25T15:05:57.330Z,59.00
2023-04-25T15:08:24.024Z,60.27
2023-04-25T15:10:51.463Z,57.56
2023-04-25T15:13:20.117Z,58.37
2023-04-25T15:15:51.899Z,58.70
2023-04-25T15:18:22.981Z,58.12
2023-04-25T15:20:51.248Z,57.01
2023-04-25T15:23:18.874Z,54.98
2023-04-25T15:25:46.029Z,56.15
2023-04-25T15:28:15.975Z,55.82
2023-04-25T15:30:44.225Z,55.34
2023-04-25T15:33:11.157Z,55.94
2023-04-25T15:35:38.268Z,54.56
2023-04-25T15:38:05.711Z,53.76
2023-04-25T15:40:32.479Z,54.98
2023-04-25T15:42:59.639Z,55.37
2023-04-25T15:45:26.808Z,56.10
2023-04-25T15:47:55.802Z,55.49
2023-04-25T15:50:23.792Z,55.82
2023-04-25T15:52:51.566Z,55.86
2023-04-25T15:55:21.520Z,55.30
2023-04-25T15:57:49.697Z,53.13
2023-04-25T16:00:19.433Z,53.47
2023-04-25T16:02:48.268Z,52.78
2023-04-25T16:05:16.352Z,53.83
2023-04-25T16:07:45.097Z,54.86
2023-04-25T16:10:12.781Z,55.64
2023-04-25T16:12:40.547Z,56.70
2023-04-25T16:15:07.830Z,57.15
2023-04-25T16:17:34.650Z,55.79
2023-04-25T16:20:10.450Z,54.43
2023-04-25T16:22:42.345Z,54.71
2023-04-25T16:25:10.220Z,55.31
2023-04-25T16:27:40.095Z,55.65
2023-04-25T16:30:08.283Z,56.37
2023-04-25T16:32:35.861Z,56.39
2023-04-25T16:35:02.826Z,56.20
2023-04-25T16:37:29.678Z,55.64
2023-04-25T16:39:56.545Z,56.01
2023-04-25T16:42:23.331Z,56.53
2023-04-25T16:44:50.080Z,56.63
2023-04-25T16:47:19.955Z,56.70
2023-04-25T16:49:47.335Z,56.71
2023-04-25T16:52:15.055Z,57.32
2023-04-25T16:54:41.772Z,57.13
2023-04-25T16:57:10.990Z,60.25
2023-04-25T16:59:38.689Z,64.32
2023-04-25T17:02:05.606Z,65.84
2023-04-25T17:04:32.423Z,67.20
2023-04-25T17:06:59.218Z,67.62
2023-04-25T17:09:27.140Z,68.28
2023-04-25T17:11:54.846Z,68.30
2023-04-25T17:14:21.583Z,68.27
2023-04-25T17:16:49.544Z,68.79
2023-04-25T17:19:16.456Z,69.11
2023-04-25T17:21:44.232Z,69.99
2023-04-25T17:24:12.012Z,72.20
2023-04-25T17:26:39.250Z,70.65
2023-04-25T17:29:06.028Z,70.33
2023-04-25T17:31:32.842Z,70.10
2023-04-25T17:33:59.864Z,70.42
2023-04-25T17:36:26.638Z,70.34
2023-04-25T17:38:53.450Z,71.27
2023-04-25T17:41:20.814Z,70.56
2023-04-25T17:43:48.840Z,70.26
2023-04-25T17:46:15.809Z,70.30
2023-04-25T17:48:42.666Z,70.18
2023-04-25T17:51:09.504Z,70.43
2023-04-25T17:53:36.491Z,70.17
2023-04-25T17:56:05.281Z,70.06
2023-04-25T17:58:33.534Z,70.09
2023-04-25T18:01:00.319Z,70.32
2023-04-25T18:03:27.558Z,70.86
2023-04-25T18:05:54.637Z,70.10
2023-04-25T18:08:22.550Z,70.55
2023-04-25T18:10:49.351Z,70.78
2023-04-25T18:13:17.288Z,71.00
2023-04-25T18:15:44.557Z,71.49
2023-04-25T18:18:19.702Z,71.06
2023-04-25T18:20:47.162Z,72.27
2023-04-25T18:23:13.859Z,72.13
2023-04-25T18:25:41.671Z,71.96
2023-04-25T18:28:08.930Z,71.41
2023-04-25T18:30:36.099Z,71.30
2023-04-25T18:33:02.903Z,71.77
2023-04-25T18:35:29.634Z,72.31
2023-04-25T18:37:56.439Z,71.93
2023-04-25T18:40:23.209Z,72.25
2023-04-25T18:42:49.973Z,72.22
2023-04-25T18:45:16.919Z,72.37
2023-04-25T18:47:43.939Z,72.99
2023-04-25T18:50:15.353Z,72.77
2023-04-25T18:52:42.079Z,73.67
2023-04-25T18:55:09.517Z,73.16
2023-04-25T18:57:37.932Z,73.63
2023-04-25T19:00:06.666Z,73.50
2023-04-25T19:02:36.808Z,73.40
2023-04-25T19:05:04.028Z,73.48
2023-04-25T19:07:32.217Z,73.39
2023-04-25T19:09:59.000Z,73.87
2023-04-25T19:12:25.755Z,74.01
2023-04-25T19:14:53.365Z,74.05
2023-04-25T19:17:20.165Z,74.40
2023-04-25T19:19:46.864Z,74.67
2023-04-25T19:22:14.200Z,74.77
2023-04-25T19:24:40.985Z,74.05
2023-04-25T19:27:07.802Z,74.55
2023-04-25T19:29:34.668Z,74.32
2023-04-25T19:32:03.259Z,74.30
2023-04-25T19:34:30.259Z,74.04
2023-04-25T19:36:56.967Z,73.80
2023-04-25T19:39:23.849Z,75.06
2023-04-25T19:41:50.674Z,74.73
2023-04-25T19:44:17.368Z,74.40
2023-04-25T19:46:46.491Z,74.93
2023-04-25T19:49:13.345Z,75.10
2023-04-25T19:51:40.093Z,75.34
2023-04-25T19:54:06.786Z,75.44
2023-04-25T19:56:33.809Z,75.59
2023-04-25T19:59:00.697Z,75.99
2023-04-25T20:01:27.877Z,75.99
2023-04-25T20:03:55.148Z,76.38
2023-04-25T20:06:22.167Z,76.86
2023-04-25T20:08:50.487Z,76.44
2023-04-25T20:11:17.571Z,76.92
2023-04-25T20:13:44.904Z,76.84
2023-04-25T20:16:11.790Z,76.88
2023-04-25T20:18:39.386Z,77.08
2023-04-25T20:21:07.548Z,77.63
2023-04-25T20:23:34.246Z,78.46
2023-04-25T20:26:00.942Z,77.82
2023-04-25T20:28:27.731Z,77.94
2023-04-25T20:30:54.569Z,77.59
2023-04-25T20:33:22.124Z,77.38
2023-04-25T20:35:49.188Z,77.53
2023-04-25T20:38:16.364Z,77.96
2023-04-25T20:40:43.125Z,77.85
2023-04-25T20:43:11.946Z,77.68
2023-04-25T20:45:39.642Z,77.11
2023-04-25T20:48:06.430Z,78.60
2023-04-25T20:50:33.796Z,78.18
2023-04-25T20:53:00.581Z,78.67
2023-04-25T20:55:27.265Z,78.46
2023-04-25T20:57:54.018Z,78.57
2023-04-25T21:00:27.321Z,78.58
2023-04-25T21:02:54.627Z,78.80
2023-04-25T21:05:22.350Z,78.62
2023-04-25T21:07:49.904Z,79.04
2023-04-25T21:10:17.240Z,79.20
2023-04-25T21:12:47.869Z,79.54
2023-04-25T21:15:21.190Z,79.34
2023-04-25T21:17:49.549Z,79.11
2023-04-25T21:20:18.154Z,79.04
2023-04-25T21:22:54.055Z,79.63
2023-04-25T21:25:29.025Z,79.55
2023-04-25T21:27:56.170Z,78.92
2023-04-25T21:30:24.207Z,79.31
2023-04-25T21:32:52.077Z,80.01
2023-04-25T21:35:20.845Z,79.76
2023-04-25T21:37:47.967Z,80.01
2023-04-25T21:40:15.338Z,79.83
2023-04-25T21:42:42.444Z,79.70
2023-04-25T21:45:09.954Z,79.57
2023-04-25T21:47:36.963Z,79.21
2023-04-25T21:50:04.167Z,79.38
2023-04-25T21:52:31.870Z,79.42
2023-04-25T21:54:58.636Z,79.71
2023-04-25T21:57:26.024Z,79.55
2023-04-25T21:59:53.452Z,79.58
2023-04-25T22:02:20.600Z,79.79
2023-04-25T22:04:48.322Z,80.12
2023-04-25T22:07:15.668Z,80.33
2023-04-25T22:09:53.853Z,80.30
2023-04-25T22:12:23.076Z,80.53
2023-04-25T22:14:50.224Z,80.64
2023-04-25T22:17:17.781Z,80.64
2023-04-25T22:19:45.016Z,80.82
2023-04-25T22:22:11.764Z,81.42
2023-04-25T22:24:38.866Z,80.94
2023-04-25T22:27:06.069Z,81.19
2023-04-25T22:29:32.843Z,81.18
2023-04-25T22:31:59.969Z,81.39
2023-04-25T22:34:26.785Z,81.29
2023-04-25T22:36:54.974Z,81.36
2023-04-25T22:39:21.649Z,81.21
2023-04-25T22:41:48.878Z,81.48
2023-04-25T22:44:16.094Z,81.50
2023-04-25T22:46:43.226Z,81.83
2023-04-25T22:49:10.070Z,81.73
2023-04-25T22:51:37.009Z,82.39
2023-04-25T22:54:04.778Z,81.71
2023-04-25T22:56:32.615Z,82.01
2023-04-25T22:58:59.391Z,81.98
2023-04-25T23:01:27.864Z,82.44
2023-04-25T23:03:54.992Z,81.82
2023-04-25T23:06:21.911Z,81.94
2023-04-25T23:08:49.792Z,82.78
2023-04-25T23:11:16.444Z,81.93
2023-04-25T23:13:43.128Z,81.68
2023-04-25T23:16:11.012Z,81.82
2023-04-25T23:18:39.245Z,82.19
2023-04-25T23:21:09.440Z,82.14
2023-04-25T23:23:36.541Z,81.89
2023-04-25T23:26:10.243Z,82.26
2023-04-25T23:28:48.960Z,82.24
2023-04-25T23:31:15.827Z,82.28
2023-04-25T23:33:42.457Z,82.55
2023-04-25T23:36:17.995Z,81.67
2023-04-25T23:38:44.888Z,82.21
2023-04-25T23:43:38.394Z,82.48
2023-04-25T23:46:05.005Z,82.53
2023-04-25T23:48:31.846Z,82.22
2023-04-25T23:50:58.676Z,82.90
2023-04-25T23:53:25.331Z,82.97
2023-04-25T23:55:51.831Z,82.78
2023-04-25T23:58:18.380Z,82.20
